createdAt,value
2022-08-17T00:00:43.214Z,28.22
2022-08-17T00:03:17.301Z,28.25
2022-08-17T00:05:43.883Z,28.27
2022-08-17T00:08:10.256Z,28.49
2022-08-17T00:10:36.677Z,28.29
2022-08-17T00:13:03.079Z,28.26
2022-08-17T00:15:29.463Z,28.30
2022-08-17T00:17:55.831Z,28.18
2022-08-17T00:20:23.426Z,28.29
2022-08-17T00:22:58.572Z,28.22
2022-08-17T00:25:24.959Z,28.31
2022-08-17T00:27:51.329Z,28.13
2022-08-17T00:30:17.684Z,28.15
2022-08-17T00:33:12.019Z,28.25
2022-08-17T00:35:30.379Z,28.18
2022-08-17T00:37:56.777Z,28.29
2022-08-17T00:40:24.575Z,28.26
2022-08-17T00:42:51.352Z,28.19
2022-08-17T00:45:17.858Z,28.17
2022-08-17T00:47:44.235Z,28.29
2022-08-17T00:50:10.653Z,28.13
2022-08-17T00:52:36.994Z,28.10
2022-08-17T00:55:03.362Z,28.15
2022-08-17T00:57:29.725Z,28.08
2022-08-17T01:00:02.271Z,28.17
2022-08-17T01:02:29.973Z,28.16
2022-08-17T01:05:00.808Z,28.09
2022-08-17T01:07:27.180Z,28.20
2022-08-17T01:09:53.535Z,28.22
2022-08-17T01:12:19.903Z,28.15
2022-08-17T01:14:46.280Z,28.25
2022-08-17T01:17:12.661Z,28.14
2022-08-17T01:19:39.021Z,28.09
2022-08-17T01:22:05.377Z,28.15
2022-08-17T01:24:31.743Z,28.17
2022-08-17T01:27:00.238Z,28.10
2022-08-17T01:29:26.677Z,28.13
2022-08-17T01:31:53.053Z,28.07
2022-08-17T01:34:19.423Z,28.07
2022-08-17T01:36:46.751Z,28.12
2022-08-17T01:39:13.129Z,28.09
2022-08-17T01:41:39.494Z,28.14
2022-08-17T01:44:05.866Z,28.08
2022-08-17T01:46:32.223Z,28.12
2022-08-17T01:48:58.579Z,28.03
2022-08-17T01:51:24.978Z,28.12
2022-08-17T01:53:51.328Z,28.09
2022-08-17T01:56:17.685Z,28.06
2022-08-17T01:58:44.042Z,28.00
2022-08-17T02:01:10.577Z,27.98
2022-08-17T02:03:36.983Z,28.11
2022-08-17T02:06:03.350Z,28.11
2022-08-17T02:08:37.053Z,28.04
2022-08-17T02:11:05.712Z,28.07
2022-08-17T02:13:37.843Z,28.10
2022-08-17T02:16:04.210Z,28.07
2022-08-17T02:18:30.567Z,28.13
2022-08-17T02:20:56.939Z,28.06
2022-08-17T02:23:23.282Z,28.04
2022-08-17T02:25:49.641Z,28.13
2022-08-17T02:28:16.019Z,28.04
2022-08-17T02:31:01.640Z,28.06
2022-08-17T02:33:42.258Z,28.13
2022-08-17T02:36:10.016Z,28.19
2022-08-17T02:38:36.385Z,28.20
2022-08-17T02:41:02.747Z,28.14
2022-08-17T02:43:29.115Z,28.23
2022-08-17T02:45:55.479Z,28.14
2022-08-17T02:48:30.825Z,28.17
2022-08-17T02:50:57.673Z,28.05
2022-08-17T02:53:24.033Z,28.13
2022-08-17T02:55:52.015Z,28.13
2022-08-17T02:58:19.011Z,28.12
2022-08-17T03:01:01.955Z,28.13
2022-08-17T03:03:28.320Z,28.24
2022-08-17T03:05:54.673Z,28.31
2022-08-17T03:08:21.030Z,28.25
2022-08-17T03:10:47.387Z,28.24
2022-08-17T03:13:13.795Z,28.19
2022-08-17T03:15:40.666Z,28.29
2022-08-17T03:18:19.000Z,28.18
2022-08-17T03:20:51.613Z,28.19
2022-08-17T03:23:17.967Z,28.14
2022-08-17T03:25:44.328Z,28.13
2022-08-17T03:28:12.095Z,28.25
2022-08-17T03:30:38.494Z,28.20
2022-08-17T03:33:04.871Z,28.24
2022-08-17T03:35:31.236Z,28.20
2022-08-17T03:38:00.452Z,28.12
2022-08-17T03:40:58.107Z,28.19
2022-08-17T03:43:13.872Z,28.19
2022-08-17T03:45:42.015Z,28.27
2022-08-17T03:48:09.617Z,28.25
2022-08-17T03:50:35.976Z,28.30
2022-08-17T03:53:02.338Z,28.16
2022-08-17T03:55:35.790Z,28.19
2022-08-17T03:58:02.790Z,28.06
2022-08-17T04:00:29.187Z,28.03
2022-08-17T04:02:55.574Z,28.17
2022-08-17T04:05:21.937Z,28.04
2022-08-17T04:07:48.299Z,28.06
2022-08-17T04:10:14.647Z,28.17
2022-08-17T04:12:40.994Z,28.21
2022-08-17T04:15:07.368Z,28.09
2022-08-17T04:17:33.721Z,28.10
2022-08-17T04:20:00.090Z,28.16
2022-08-17T04:22:32.314Z,28.16
2022-08-17T04:25:00.322Z,28.05
2022-08-17T04:27:26.699Z,28.08
2022-08-17T04:29:54.921Z,28.10
2022-08-17T04:32:58.377Z,28.24
2022-08-17T04:35:08.597Z,28.14
2022-08-17T04:37:34.971Z,28.16
2022-08-17T04:40:04.155Z,28.14
2022-08-17T04:42:30.769Z,28.17
2022-08-17T04:44:57.133Z,28.15
2022-08-17T04:47:23.503Z,28.16
2022-08-17T04:49:49.855Z,28.19
2022-08-17T04:52:29.484Z,28.12
2022-08-17T04:55:02.541Z,28.11
2022-08-17T04:57:28.902Z,28.17
2022-08-17T05:00:04.075Z,28.08
2022-08-17T05:02:32.434Z,28.18
2022-08-17T05:04:58.787Z,28.27
2022-08-17T05:07:31.298Z,28.26
2022-08-17T05:09:58.005Z,28.21
2022-08-17T05:12:24.351Z,28.19
2022-08-17T05:14:50.707Z,28.18
2022-08-17T05:17:17.077Z,28.09
2022-08-17T05:19:43.457Z,28.08
2022-08-17T05:22:09.805Z,28.21
2022-08-17T05:24:42.878Z,28.11
2022-08-17T05:27:19.665Z,28.29
2022-08-17T05:29:46.030Z,28.25
2022-08-17T05:32:39.691Z,28.17
2022-08-17T05:34:58.725Z,28.22
2022-08-17T05:37:25.102Z,28.24
2022-08-17T05:39:51.489Z,28.28
2022-08-17T05:42:17.889Z,28.24
2022-08-17T05:44:44.244Z,28.22
2022-08-17T05:47:10.604Z,28.14
2022-08-17T05:49:37.056Z,28.25
2022-08-17T05:52:03.419Z,28.17
2022-08-17T05:54:29.804Z,28.26
2022-08-17T05:56:56.153Z,28.09
2022-08-17T05:59:22.501Z,28.17
2022-08-17T06:01:48.858Z,28.25
2022-08-17T06:04:15.257Z,28.14
2022-08-17T06:06:41.608Z,28.08
2022-08-17T06:09:07.965Z,28.10
2022-08-17T06:11:34.330Z,28.15
2022-08-17T06:14:01.725Z,28.17
2022-08-17T06:16:34.051Z,28.22
2022-08-17T06:19:01.154Z,28.24
2022-08-17T06:21:27.513Z,28.22
2022-08-17T06:23:58.540Z,28.17
2022-08-17T06:26:25.885Z,28.27
2022-08-17T06:28:56.875Z,28.16
2022-08-17T06:31:23.223Z,28.24
2022-08-17T06:33:49.592Z,28.27
2022-08-17T06:36:16.227Z,28.29
2022-08-17T06:38:42.651Z,28.19
2022-08-17T06:41:08.996Z,28.35
2022-08-17T06:43:35.355Z,28.18
2022-08-17T06:46:01.713Z,28.27
2022-08-17T06:48:30.530Z,28.21
2022-08-17T06:50:56.918Z,28.20
2022-08-17T06:53:23.282Z,28.14
2022-08-17T06:55:49.644Z,28.17
2022-08-17T06:58:16.899Z,28.20
2022-08-17T07:00:43.555Z,28.12
2022-08-17T07:03:10.267Z,28.20
2022-08-17T07:05:36.899Z,28.25
2022-08-17T07:08:05.129Z,28.29
2022-08-17T07:10:31.488Z,28.18
2022-08-17T07:12:57.853Z,28.28
2022-08-17T07:15:24.468Z,28.21
2022-08-17T07:17:50.811Z,28.31
2022-08-17T07:20:17.158Z,28.24
2022-08-17T07:22:50.622Z,28.19
2022-08-17T07:25:26.309Z,28.20
2022-08-17T07:27:52.767Z,28.20
2022-08-17T07:30:19.310Z,28.11
2022-08-17T07:32:45.668Z,28.13
2022-08-17T07:35:12.029Z,28.02
2022-08-17T07:37:41.603Z,27.89
2022-08-17T07:40:16.275Z,28.03
2022-08-17T07:42:45.146Z,27.82
2022-08-17T07:45:13.211Z,27.93
2022-08-17T07:47:39.565Z,27.93
2022-08-17T07:50:05.915Z,27.98
2022-08-17T07:52:50.821Z,28.00
2022-08-17T07:55:18.420Z,27.83
2022-08-17T07:57:44.767Z,27.79
2022-08-17T08:00:16.196Z,27.99
2022-08-17T08:02:42.921Z,27.92
2022-08-17T08:05:10.049Z,27.93
2022-08-17T08:07:36.531Z,27.67
2022-08-17T08:10:02.892Z,27.79
2022-08-17T08:12:33.367Z,27.77
2022-08-17T08:15:00.115Z,27.83
2022-08-17T08:17:26.479Z,27.76
2022-08-17T08:19:52.856Z,27.67
2022-08-17T08:22:19.217Z,27.55
2022-08-17T08:24:45.576Z,27.70
2022-08-17T08:27:11.972Z,27.72
2022-08-17T08:29:38.321Z,27.77
2022-08-17T08:32:04.673Z,27.85
2022-08-17T08:34:44.578Z,27.79
2022-08-17T08:37:25.018Z,27.77
2022-08-17T08:39:56.945Z,27.71
2022-08-17T08:42:23.350Z,27.41
2022-08-17T08:44:59.719Z,27.35
2022-08-17T08:47:31.241Z,27.51
2022-08-17T08:50:04.697Z,27.38
2022-08-17T08:52:31.866Z,27.53
2022-08-17T08:54:58.233Z,27.52
2022-08-17T08:57:30.882Z,27.51
2022-08-17T08:59:59.369Z,27.47
2022-08-17T09:02:25.717Z,27.62
2022-08-17T09:05:13.325Z,27.54
2022-08-17T09:07:38.461Z,27.64
2022-08-17T09:10:04.815Z,27.69
2022-08-17T09:12:31.166Z,27.73
2022-08-17T09:14:57.526Z,27.66
2022-08-17T09:17:23.919Z,27.68
2022-08-17T09:19:50.306Z,27.56
2022-08-17T09:22:16.674Z,27.67
2022-08-17T09:24:43.032Z,27.63
2022-08-17T09:27:10.293Z,27.52
2022-08-17T09:29:36.657Z,27.65
2022-08-17T09:32:03.016Z,27.42
2022-08-17T09:34:33.007Z,27.53
2022-08-17T09:36:59.759Z,27.54
2022-08-17T09:39:26.162Z,27.76
2022-08-17T09:41:52.560Z,27.72
2022-08-17T09:44:23.615Z,27.83
2022-08-17T09:46:50.154Z,27.64
2022-08-17T09:49:16.526Z,27.80
2022-08-17T09:51:42.888Z,27.80
2022-08-17T09:54:36.931Z,28.01
2022-08-17T09:57:11.843Z,27.87
2022-08-17T09:59:41.940Z,27.89
2022-08-17T10:02:08.364Z,27.80
2022-08-17T10:04:39.677Z,27.92
2022-08-17T10:07:06.031Z,28.03
2022-08-17T10:09:32.385Z,27.84
2022-08-17T10:11:59.073Z,27.87
2022-08-17T10:14:37.960Z,27.89
2022-08-17T10:17:10.596Z,27.90
2022-08-17T10:19:36.959Z,27.83
2022-08-17T10:22:14.740Z,28.04
2022-08-17T10:25:21.660Z,27.82
2022-08-17T10:27:37.070Z,27.90
2022-08-17T10:30:03.446Z,27.81
2022-08-17T10:32:29.904Z,27.94
2022-08-17T10:34:57.505Z,27.85
2022-08-17T10:37:24.015Z,27.89
2022-08-17T10:39:52.966Z,27.98
2022-08-17T10:42:32.275Z,27.95
2022-08-17T10:44:59.516Z,27.86
2022-08-17T10:47:25.982Z,27.99
2022-08-17T10:49:52.486Z,28.58
2022-08-17T10:52:18.991Z,28.71
2022-08-17T10:54:45.414Z,28.68
2022-08-17T10:57:11.858Z,28.76
2022-08-17T10:59:38.268Z,28.71
2022-08-17T11:02:04.758Z,28.48
2022-08-17T11:04:31.225Z,28.30
2022-08-17T11:06:57.698Z,28.14
2022-08-17T11:09:24.198Z,28.27
2022-08-17T11:11:50.642Z,28.18
2022-08-17T11:14:17.161Z,28.21
2022-08-17T11:16:43.535Z,28.24
2022-08-17T11:19:09.969Z,28.24
2022-08-17T11:21:36.363Z,28.26
2022-08-17T11:24:02.829Z,28.37
2022-08-17T11:26:29.334Z,28.77
2022-08-17T11:28:55.788Z,28.89
2022-08-17T11:31:22.228Z,28.92
2022-08-17T11:34:05.828Z,28.84
2022-08-17T11:36:32.239Z,28.86
2022-08-17T11:38:58.591Z,28.59
2022-08-17T11:41:25.022Z,28.65
2022-08-17T11:43:51.395Z,28.90
2022-08-17T11:46:17.749Z,28.90
2022-08-17T11:48:44.104Z,28.95
2022-08-17T11:51:10.458Z,28.97
2022-08-17T11:53:36.806Z,29.10
2022-08-17T11:56:03.161Z,29.04
2022-08-17T11:58:29.550Z,29.16
2022-08-17T12:00:55.927Z,29.10
2022-08-17T12:03:22.333Z,29.19
2022-08-17T12:05:48.811Z,29.18
2022-08-17T12:08:15.211Z,29.07
2022-08-17T12:10:41.589Z,29.18
2022-08-17T12:13:07.944Z,29.09
2022-08-17T12:15:34.297Z,29.09
2022-08-17T12:18:00.662Z,29.03
2022-08-17T12:20:27.021Z,29.14
2022-08-17T12:22:53.385Z,29.14
2022-08-17T12:25:19.755Z,29.13
2022-08-17T12:28:05.308Z,29.14
2022-08-17T12:30:32.518Z,29.23
2022-08-17T12:32:58.883Z,29.19
2022-08-17T12:35:25.243Z,29.13
2022-08-17T12:37:51.773Z,29.19
2022-08-17T12:40:18.264Z,29.15
2022-08-17T12:42:44.638Z,29.01
2022-08-17T12:45:10.982Z,29.19
2022-08-17T12:47:37.343Z,29.27
2022-08-17T12:50:03.700Z,29.12
2022-08-17T12:52:30.064Z,29.20
2022-08-17T12:54:56.434Z,29.26
2022-08-17T12:57:22.790Z,29.17
2022-08-17T12:59:49.163Z,29.17
2022-08-17T13:02:15.520Z,29.21
2022-08-17T13:04:41.881Z,29.29
2022-08-17T13:07:08.223Z,29.16
2022-08-17T13:09:35.635Z,29.27
2022-08-17T13:12:02.490Z,29.14
2022-08-17T13:14:31.351Z,29.12
2022-08-17T13:16:59.823Z,29.17
2022-08-17T13:19:39.998Z,29.05
2022-08-17T13:22:07.629Z,29.19
2022-08-17T13:24:38.032Z,29.34
2022-08-17T13:27:08.636Z,29.26
2022-08-17T13:29:35.124Z,29.14
2022-08-17T13:32:04.890Z,29.21
2022-08-17T13:34:31.519Z,29.22
2022-08-17T13:36:59.703Z,29.27
2022-08-17T13:39:26.290Z,29.15
2022-08-17T13:41:52.731Z,29.34
2022-08-17T13:44:19.091Z,29.05
2022-08-17T13:46:45.451Z,29.21
2022-08-17T13:49:18.771Z,28.92
2022-08-17T13:51:45.123Z,29.19
2022-08-17T13:54:11.473Z,29.25
2022-08-17T13:56:39.584Z,29.29
2022-08-17T13:59:06.163Z,29.31
2022-08-17T14:01:32.595Z,29.28
2022-08-17T14:03:59.205Z,29.07
2022-08-17T14:06:51.828Z,29.23
2022-08-17T14:09:12.288Z,29.30
2022-08-17T14:11:38.804Z,29.11
2022-08-17T14:14:05.329Z,29.13
2022-08-17T14:16:31.917Z,29.04
2022-08-17T14:18:58.489Z,28.92
2022-08-17T14:21:24.942Z,29.26
2022-08-17T14:23:54.723Z,29.18
2022-08-17T14:26:21.504Z,29.32
2022-08-17T14:28:54.507Z,29.41
2022-08-17T14:31:23.123Z,29.40
2022-08-17T14:33:49.478Z,29.39
2022-08-17T14:36:15.835Z,29.38
2022-08-17T14:38:42.227Z,29.41
2022-08-17T14:41:08.580Z,29.34
2022-08-17T14:43:34.935Z,29.39
2022-08-17T14:46:01.289Z,29.29
2022-08-17T14:48:27.651Z,29.30
2022-08-17T14:50:54.002Z,29.35
2022-08-17T14:53:20.361Z,29.40
2022-08-17T14:55:47.298Z,29.31
2022-08-17T14:58:15.022Z,29.29
2022-08-17T15:00:41.374Z,29.35
2022-08-17T15:03:07.732Z,29.22
2022-08-17T15:05:34.081Z,29.30
2022-08-17T15:08:00.456Z,29.31
2022-08-17T15:10:26.816Z,29.35
2022-08-17T15:12:53.174Z,29.36
2022-08-17T15:15:19.533Z,29.36
2022-08-17T15:17:46.265Z,29.41
2022-08-17T15:20:14.905Z,29.30
2022-08-17T15:22:41.579Z,29.36
2022-08-17T15:25:07.953Z,29.40
2022-08-17T15:27:34.298Z,29.38
2022-08-17T15:30:00.667Z,29.36
2022-08-17T15:32:27.076Z,29.38
2022-08-17T15:34:53.633Z,29.33
2022-08-17T15:37:20.027Z,29.34
2022-08-17T15:39:46.448Z,29.35
2022-08-17T15:42:12.812Z,29.27
2022-08-17T15:44:39.198Z,29.32
2022-08-17T15:47:05.596Z,29.31
2022-08-17T15:49:31.957Z,29.26
2022-08-17T15:51:58.444Z,29.18
2022-08-17T15:54:24.878Z,29.25
2022-08-17T15:56:58.127Z,29.18
2022-08-17T15:59:24.476Z,29.11
2022-08-17T16:03:14.922Z,28.69
2022-08-17T16:04:37.172Z,28.59
2022-08-17T16:07:10.267Z,28.48
2022-08-17T16:09:36.626Z,28.35
2022-08-17T16:12:02.988Z,28.48
2022-08-17T16:14:34.050Z,28.30
2022-08-17T16:17:01.651Z,28.29
2022-08-17T16:19:27.995Z,28.22
2022-08-17T16:21:54.356Z,28.13
2022-08-17T16:24:20.727Z,28.47
2022-08-17T16:26:47.085Z,28.65
2022-08-17T16:29:13.445Z,28.85
2022-08-17T16:31:39.809Z,28.83
2022-08-17T16:34:16.878Z,29.04
2022-08-17T16:36:54.779Z,29.15
2022-08-17T16:39:22.646Z,29.13
2022-08-17T16:41:49.003Z,29.16
2022-08-17T16:44:15.683Z,29.12
2022-08-17T16:46:45.797Z,29.05
2022-08-17T16:49:12.395Z,29.07
2022-08-17T16:51:58.733Z,29.07
2022-08-17T16:54:25.090Z,28.98
2022-08-17T16:56:51.471Z,28.72
2022-08-17T16:59:30.313Z,28.78
2022-08-17T17:01:58.704Z,28.70
2022-08-17T17:04:25.070Z,28.67
2022-08-17T17:06:51.423Z,28.73
2022-08-17T17:09:17.795Z,28.82
2022-08-17T17:11:44.165Z,28.76
2022-08-17T17:14:10.537Z,28.77
2022-08-17T17:16:36.906Z,28.91
2022-08-17T17:19:05.533Z,28.94
2022-08-17T17:21:31.900Z,28.96
2022-08-17T17:23:58.268Z,29.00
2022-08-17T17:26:24.624Z,28.98
2022-08-17T17:28:50.980Z,29.05
2022-08-17T17:31:17.374Z,28.79
2022-08-17T17:33:43.741Z,29.00
2022-08-17T17:36:10.103Z,29.05
2022-08-17T17:38:36.474Z,28.75
2022-08-17T17:41:03.101Z,28.89
2022-08-17T17:43:44.877Z,28.97
2022-08-17T17:46:28.229Z,28.86
2022-08-17T17:48:55.211Z,28.97
2022-08-17T17:52:05.877Z,29.13
2022-08-17T17:54:07.917Z,29.03
2022-08-17T17:56:43.300Z,28.97
2022-08-17T17:59:12.764Z,28.98
2022-08-17T18:01:39.457Z,28.80
2022-08-17T18:04:08.335Z,28.85
2022-08-17T18:06:46.792Z,28.91
2022-08-17T18:09:18.054Z,28.95
2022-08-17T18:11:46.082Z,29.00
2022-08-17T18:14:17.771Z,28.99
2022-08-17T18:16:44.149Z,28.98
2022-08-17T18:19:10.544Z,28.93
2022-08-17T18:21:36.950Z,28.91
2022-08-17T18:24:03.319Z,28.84
2022-08-17T18:26:29.718Z,29.10
2022-08-17T18:28:58.518Z,28.85
2022-08-17T18:31:24.882Z,28.87
2022-08-17T18:33:51.269Z,28.98
2022-08-17T18:36:17.632Z,28.87
2022-08-17T18:38:43.999Z,28.79
2022-08-17T18:41:10.439Z,28.67
2022-08-17T18:43:53.343Z,28.96
2022-08-17T18:46:28.730Z,28.90
2022-08-17T18:48:55.952Z,28.74
2022-08-17T18:51:39.768Z,28.86
2022-08-17T18:54:08.243Z,28.86
2022-08-17T18:56:34.604Z,29.07
2022-08-17T18:59:00.989Z,28.99
2022-08-17T19:01:41.982Z,28.82
2022-08-17T19:04:13.783Z,29.01
2022-08-17T19:06:40.211Z,28.99
2022-08-17T19:09:06.579Z,28.91
2022-08-17T19:11:32.953Z,28.81
2022-08-17T19:13:59.330Z,28.77
2022-08-17T19:16:25.769Z,28.69
2022-08-17T19:18:52.201Z,28.63
2022-08-17T19:21:18.562Z,28.72
2022-08-17T19:23:53.955Z,28.89
2022-08-17T19:26:53.375Z,27.89
2022-08-17T19:29:07.077Z,27.29
2022-08-17T19:31:33.498Z,27.07
2022-08-17T19:33:59.895Z,26.81
2022-08-17T19:36:26.314Z,26.88
2022-08-17T19:38:52.684Z,26.61
2022-08-17T19:41:19.407Z,26.34
2022-08-17T19:43:46.145Z,26.26
2022-08-17T19:46:12.591Z,26.02
2022-08-17T19:48:38.939Z,26.04
2022-08-17T19:51:05.291Z,25.92
2022-08-17T19:53:54.246Z,26.25
2022-08-17T19:56:17.993Z,26.07
2022-08-17T19:58:44.837Z,25.89
2022-08-17T20:01:11.249Z,25.91
2022-08-17T20:03:37.627Z,25.88
2022-08-17T20:06:19.348Z,25.76
2022-08-17T20:08:45.704Z,25.87
2022-08-17T20:11:12.081Z,26.03
2022-08-17T20:13:38.491Z,26.15
2022-08-17T20:16:04.864Z,25.90
2022-08-17T20:18:31.210Z,25.87
2022-08-17T20:20:57.575Z,25.88
2022-08-17T20:23:24.315Z,25.55
2022-08-17T20:25:50.663Z,25.69
2022-08-17T20:28:17.019Z,25.52
2022-08-17T20:30:43.374Z,25.19
2022-08-17T20:33:13.310Z,25.45
2022-08-17T20:35:39.915Z,25.50
2022-08-17T20:38:06.274Z,25.48
2022-08-17T20:40:32.644Z,25.31
2022-08-17T20:42:59.010Z,25.43
2022-08-17T20:45:25.377Z,25.39
2022-08-17T20:48:16.000Z,25.30
2022-08-17T20:50:38.089Z,25.42
2022-08-17T20:53:04.442Z,25.52
2022-08-17T20:55:30.790Z,25.59
2022-08-17T20:57:58.907Z,25.55
2022-08-17T21:00:25.255Z,25.55
2022-08-17T21:02:51.607Z,25.53
2022-08-17T21:05:17.959Z,25.53
2022-08-17T21:07:44.328Z,25.90
2022-08-17T21:10:10.692Z,26.41
2022-08-17T21:12:37.042Z,26.66
2022-08-17T21:15:03.410Z,26.89
2022-08-17T21:17:29.815Z,26.99
2022-08-17T21:20:10.265Z,27.03
2022-08-17T21:22:38.053Z,27.27
2022-08-17T21:25:04.421Z,27.28
2022-08-17T21:27:30.771Z,27.43
2022-08-17T21:29:57.120Z,27.42
2022-08-17T21:32:24.527Z,27.50
2022-08-17T21:34:51.759Z,27.47
2022-08-17T21:37:18.122Z,27.29
2022-08-17T21:39:44.652Z,27.18
2022-08-17T21:42:11.031Z,27.12
2022-08-17T21:44:37.418Z,27.15
2022-08-17T21:47:03.791Z,27.07
2022-08-17T21:49:30.151Z,27.08
2022-08-17T21:52:04.248Z,27.08
2022-08-17T21:54:30.639Z,27.00
2022-08-17T21:56:56.993Z,27.06
2022-08-17T21:59:23.342Z,27.06
2022-08-17T22:01:50.576Z,27.04
2022-08-17T22:04:17.084Z,27.04
2022-08-17T22:06:52.287Z,27.16
2022-08-17T22:09:23.840Z,27.19
2022-08-17T22:11:50.202Z,27.15
2022-08-17T22:14:16.545Z,27.16
2022-08-17T22:16:43.858Z,27.16
2022-08-17T22:19:10.219Z,27.20
2022-08-17T22:21:36.588Z,27.28
2022-08-17T22:24:02.950Z,27.34
2022-08-17T22:26:29.311Z,27.33
2022-08-17T22:28:55.675Z,27.30
2022-08-17T22:31:22.053Z,27.28
2022-08-17T22:33:48.420Z,27.24
2022-08-17T22:36:14.809Z,27.29
2022-08-17T22:38:41.533Z,27.30
2022-08-17T22:41:10.010Z,27.27
2022-08-17T22:43:36.376Z,27.27
2022-08-17T22:46:02.731Z,27.30
2022-08-17T22:48:29.082Z,27.37
2022-08-17T22:50:55.457Z,27.34
2022-08-17T22:53:21.808Z,27.42
2022-08-17T22:55:48.166Z,27.40
2022-08-17T22:58:14.533Z,27.34
2022-08-17T23:00:40.897Z,27.36
2022-08-17T23:03:07.336Z,27.41
2022-08-17T23:05:33.769Z,27.41
2022-08-17T23:08:00.125Z,27.36
2022-08-17T23:10:26.481Z,27.41
2022-08-17T23:12:52.866Z,27.49
2022-08-17T23:15:19.239Z,27.31
2022-08-17T23:17:45.593Z,27.38
2022-08-17T23:20:11.977Z,27.42
2022-08-17T23:22:38.333Z,27.45
2022-08-17T23:25:18.963Z,27.46
2022-08-17T23:27:46.960Z,27.44
2022-08-17T23:30:13.351Z,27.41
2022-08-17T23:32:53.256Z,27.41
2022-08-17T23:35:20.411Z,27.36
2022-08-17T23:38:06.761Z,27.41
2022-08-17T23:40:33.133Z,27.50
2022-08-17T23:42:59.442Z,27.48
2022-08-17T23:45:25.828Z,27.45
2022-08-17T23:47:52.397Z,27.40
2022-08-17T23:50:18.900Z,27.46
2022-08-17T23:52:46.627Z,27.48
2022-08-17T23:55:12.983Z,27.51
2022-08-17T23:57:39.353Z,27.55
